createdAt,value
2018-05-11T00:02:09.093Z,14.30
2018-05-11T00:04:37.629Z,14.20
2018-05-11T00:07:05.093Z,14.83
2018-05-11T00:09:32.554Z,15.70
2018-05-11T00:12:00.029Z,16.73
2018-05-11T00:14:27.519Z,14.60
2018-05-11T00:16:54.963Z,14.70
2018-05-11T00:19:22.440Z,15.97
2018-05-11T00:21:49.940Z,15.65
2018-05-11T00:24:17.420Z,13.67
2018-05-11T00:26:44.867Z,14.67
2018-05-11T00:29:12.347Z,14.10
2018-05-11T00:31:39.993Z,13.73
2018-05-11T00:34:08.237Z,14.90
2018-05-11T00:36:35.706Z,15.17
2018-05-11T00:39:03.183Z,15.70
2018-05-11T00:41:30.670Z,17.00
2018-05-11T00:43:58.146Z,15.80
2018-05-11T00:46:25.788Z,15.32
2018-05-11T00:48:53.280Z,14.60
2018-05-11T00:51:20.766Z,14.15
2018-05-11T00:53:48.242Z,14.33
2018-05-11T00:56:15.724Z,15.30
2018-05-11T00:58:47.256Z,15.95
2018-05-11T01:01:14.718Z,16.17
2018-05-11T01:03:42.757Z,15.40
2018-05-11T01:06:10.214Z,17.60
2018-05-11T01:08:37.698Z,16.00
2018-05-11T01:11:05.158Z,16.27
2018-05-11T01:13:32.631Z,17.75
2018-05-11T01:16:00.086Z,16.90
2018-05-11T01:18:27.574Z,16.75
2018-05-11T01:20:55.032Z,17.15
2018-05-11T01:23:23.279Z,17.50
2018-05-11T01:25:50.781Z,17.20
2018-05-11T01:28:18.232Z,17.42
2018-05-11T01:30:46.237Z,17.12
2018-05-11T01:33:13.720Z,17.23
2018-05-11T01:35:41.943Z,17.10
2018-05-11T01:38:09.433Z,17.30
2018-05-11T01:40:36.911Z,16.80
2018-05-11T01:43:04.374Z,16.45
2018-05-11T01:45:31.863Z,16.30
2018-05-11T01:47:59.314Z,16.33
2018-05-11T01:50:26.804Z,15.65
2018-05-11T01:52:54.291Z,16.70
2018-05-11T01:55:21.771Z,15.50
2018-05-11T01:57:50.010Z,16.02
2018-05-11T02:00:18.244Z,17.62
2018-05-11T02:02:45.701Z,16.92
2018-05-11T02:05:13.181Z,17.87
2018-05-11T02:07:40.654Z,18.12
2018-05-11T02:10:08.132Z,17.20
2018-05-11T02:12:35.611Z,16.95
2018-05-11T02:15:03.072Z,17.45
2018-05-11T02:17:30.557Z,17.75
2018-05-11T02:19:58.035Z,16.83
2018-05-11T02:22:25.864Z,17.35
2018-05-11T02:24:53.296Z,17.00
2018-05-11T02:27:20.774Z,17.58
2018-05-11T02:29:48.235Z,17.15
2018-05-11T02:32:15.719Z,18.50
2018-05-11T02:34:43.222Z,15.50
2018-05-11T02:37:11.493Z,15.82
2018-05-11T02:39:38.957Z,15.45
2018-05-11T02:42:06.423Z,14.80
2018-05-11T02:44:33.932Z,16.42
2018-05-11T02:47:01.631Z,15.70
2018-05-11T02:49:29.090Z,14.98
2018-05-11T02:51:56.606Z,17.10
2018-05-11T02:54:24.056Z,17.45
2018-05-11T02:56:51.548Z,16.62
2018-05-11T02:59:19.019Z,15.75
2018-05-11T03:01:46.471Z,16.75
2018-05-11T03:04:13.955Z,17.73
2018-05-11T03:06:41.426Z,15.60
2018-05-11T03:12:22.209Z,15.80
2018-05-11T03:24:34.747Z,14.75
2018-05-11T03:27:02.237Z,13.90
2018-05-11T03:29:29.731Z,14.20
2018-05-11T03:31:57.200Z,14.87
2018-05-11T03:34:24.724Z,14.85
2018-05-11T03:36:52.992Z,14.95
2018-05-11T03:39:21.218Z,12.75
2018-05-11T03:41:50.060Z,14.68
2018-05-11T03:44:17.563Z,12.55
2018-05-11T03:46:45.039Z,13.35
2018-05-11T03:49:12.512Z,13.35
2018-05-11T03:51:39.992Z,13.90
2018-05-11T03:54:07.471Z,13.98
2018-05-11T03:56:34.951Z,13.45
2018-05-11T03:59:02.418Z,13.90
2018-05-11T04:01:41.684Z,14.25
2018-05-11T04:04:21.009Z,14.02
2018-05-11T04:07:01.267Z,13.98
2018-05-11T04:09:28.723Z,11.90
2018-05-11T04:11:56.186Z,13.90
2018-05-11T04:14:24.251Z,13.20
2018-05-11T04:16:52.502Z,13.80
2018-05-11T04:19:19.947Z,14.45
2018-05-11T04:21:47.407Z,14.25
2018-05-11T04:24:14.886Z,12.50
2018-05-11T04:26:42.366Z,13.88
2018-05-11T04:29:09.826Z,14.68
2018-05-11T04:31:37.303Z,14.10
2018-05-11T04:34:04.798Z,13.20
2018-05-11T04:39:35.484Z,12.75
2018-05-11T04:42:03.752Z,13.38
2018-05-11T04:44:32.059Z,12.90
2018-05-11T04:46:59.575Z,12.80
2018-05-11T04:49:27.050Z,12.63
2018-05-11T04:51:54.614Z,13.40
2018-05-11T04:54:22.091Z,11.50
2018-05-11T04:56:49.578Z,12.30
2018-05-11T04:59:17.045Z,12.68
2018-05-11T05:01:44.528Z,12.35
2018-05-11T05:04:15.710Z,12.77
2018-05-11T05:06:43.940Z,12.07
2018-05-11T05:09:11.458Z,12.63
2018-05-11T05:11:38.916Z,13.80
2018-05-11T05:14:06.402Z,13.75
2018-05-11T05:16:33.888Z,12.93
2018-05-11T05:19:01.361Z,12.90
2018-05-11T05:21:28.832Z,13.05
2018-05-11T05:23:56.301Z,11.90
2018-05-11T05:26:23.812Z,11.95
2018-05-11T05:28:52.055Z,11.45
2018-05-11T05:31:19.531Z,12.48
2018-05-11T05:33:47.111Z,10.55
2018-05-11T05:36:14.643Z,10.88
2018-05-11T05:38:42.105Z,11.32
2018-05-11T05:41:11.284Z,10.23
2018-05-11T05:43:38.738Z,10.10
2018-05-11T05:46:19.127Z,9.60
2018-05-11T05:48:46.595Z,9.53
2018-05-11T05:51:14.034Z,7.43
2018-05-11T05:53:41.515Z,8.70
2018-05-11T05:56:09.011Z,8.20
2018-05-11T05:58:36.581Z,8.10
2018-05-11T06:01:03.969Z,7.83
2018-05-11T06:03:31.418Z,7.60
2018-05-11T06:05:59.379Z,7.97
2018-05-11T06:08:26.860Z,8.50
2018-05-11T06:10:55.097Z,8.40
2018-05-11T06:13:23.312Z,8.13
2018-05-11T06:15:51.367Z,7.93
2018-05-11T06:18:18.845Z,6.80
2018-05-11T06:20:46.311Z,8.27
2018-05-11T06:23:13.779Z,8.40
2018-05-11T06:25:41.225Z,8.17
2018-05-11T06:28:09.503Z,8.43
2018-05-11T06:30:36.985Z,9.03
2018-05-11T06:33:04.443Z,8.23
2018-05-11T06:35:31.913Z,8.07
2018-05-11T06:37:59.378Z,7.20
2018-05-11T06:40:26.882Z,8.40
2018-05-11T06:42:54.279Z,8.53
2018-05-11T06:45:21.738Z,8.03
2018-05-11T06:47:50.001Z,8.53
2018-05-11T06:50:17.463Z,8.87
2018-05-11T06:52:44.940Z,9.83
2018-05-11T06:55:12.432Z,8.50
2018-05-11T06:57:39.867Z,8.70
2018-05-11T07:00:07.342Z,8.10
2018-05-11T07:02:34.803Z,8.17
2018-05-11T07:05:02.262Z,8.53
2018-05-11T07:07:30.761Z,9.40
2018-05-11T07:09:59.022Z,8.63
2018-05-11T07:12:26.470Z,9.67
2018-05-11T07:14:53.940Z,9.23
2018-05-11T07:17:21.393Z,8.47
2018-05-11T07:19:49.611Z,8.67
2018-05-11T07:22:17.054Z,8.07
2018-05-11T07:24:45.311Z,9.80
2018-05-11T07:27:12.785Z,8.60
2018-05-11T07:29:40.262Z,9.57
2018-05-11T07:32:07.749Z,9.77
2018-05-11T07:34:35.194Z,8.47
2018-05-11T07:37:02.706Z,9.60
2018-05-11T07:39:30.212Z,9.17
2018-05-11T07:41:57.706Z,8.70
2018-05-11T07:44:25.188Z,8.93
2018-05-11T07:46:52.649Z,8.67
2018-05-11T07:49:20.114Z,8.80
2018-05-11T07:51:48.362Z,8.67
2018-05-11T07:54:15.816Z,8.97
2018-05-11T07:56:43.275Z,9.47
2018-05-11T07:59:10.763Z,9.60
2018-05-11T08:01:38.245Z,9.07
2018-05-11T08:04:05.776Z,9.47
2018-05-11T08:06:34.013Z,9.83
2018-05-11T08:09:01.543Z,10.50
2018-05-11T08:11:29.780Z,9.77
2018-05-11T08:13:57.219Z,10.00
2018-05-11T08:16:24.696Z,11.23
2018-05-11T08:18:52.197Z,10.10
2018-05-11T08:21:20.411Z,10.00
2018-05-11T08:23:47.962Z,10.50
2018-05-11T08:26:15.441Z,10.90
2018-05-11T08:28:42.921Z,9.40
2018-05-11T08:31:10.398Z,10.70
2018-05-11T08:33:37.898Z,11.17
2018-05-11T08:36:05.522Z,11.70
2018-05-11T08:38:33.081Z,11.20
2018-05-11T08:41:01.300Z,11.60
2018-05-11T08:43:29.083Z,12.17
2018-05-11T08:45:56.512Z,11.07
2018-05-11T08:48:23.958Z,10.60
2018-05-11T08:50:51.433Z,9.70
2018-05-11T08:53:18.904Z,10.30
2018-05-11T08:55:46.380Z,11.50
2018-05-11T08:58:13.822Z,10.30
2018-05-11T09:00:41.295Z,10.10
2018-05-11T09:03:08.851Z,11.73
2018-05-11T09:05:36.242Z,11.17
2018-05-11T09:08:03.722Z,10.67
2018-05-11T09:10:31.996Z,10.20
2018-05-11T09:12:59.423Z,9.17
2018-05-11T09:15:27.703Z,9.53
2018-05-11T09:17:55.157Z,9.13
2018-05-11T09:20:22.674Z,10.03
2018-05-11T09:22:50.144Z,8.90
2018-05-11T09:25:17.626Z,9.13
2018-05-11T09:27:45.077Z,9.10
2018-05-11T09:30:12.582Z,7.93
2018-05-11T09:32:40.114Z,8.50
2018-05-11T09:35:08.301Z,8.53
2018-05-11T09:37:35.792Z,8.20
2018-05-11T09:40:03.240Z,7.67
2018-05-11T09:42:31.494Z,9.23
2018-05-11T09:44:58.954Z,8.33
2018-05-11T09:47:26.436Z,7.57
2018-05-11T09:49:53.942Z,6.80
2018-05-11T09:52:21.401Z,8.13
2018-05-11T09:54:48.861Z,8.60
2018-05-11T09:57:16.409Z,8.13
2018-05-11T09:59:44.601Z,8.87
2018-05-11T10:02:12.067Z,7.50
2018-05-11T10:04:39.522Z,7.40
2018-05-11T10:07:07.779Z,8.40
2018-05-11T10:09:35.239Z,8.40
2018-05-11T10:12:03.456Z,9.90
2018-05-11T10:14:34.909Z,9.13
2018-05-11T10:17:02.357Z,8.87
2018-05-11T10:19:30.522Z,7.90
2018-05-11T10:21:58.782Z,8.30
2018-05-11T10:24:27.018Z,8.40
2018-05-11T10:26:54.467Z,8.13
2018-05-11T10:29:21.947Z,10.07
2018-05-11T10:31:50.259Z,8.33
2018-05-11T10:34:18.499Z,9.07
2018-05-11T10:36:45.981Z,8.00
2018-05-11T10:39:13.447Z,7.30
2018-05-11T10:41:40.910Z,7.73
2018-05-11T10:44:08.363Z,6.80
2018-05-11T10:46:35.836Z,6.13
2018-05-11T10:49:03.280Z,5.37
2018-05-11T10:51:30.780Z,5.00
2018-05-11T10:53:59.007Z,6.10
2018-05-11T10:56:26.530Z,7.17
2018-05-11T10:58:53.975Z,6.43
2018-05-11T11:01:21.462Z,6.00
2018-05-11T11:03:48.909Z,5.63
2018-05-11T11:06:16.384Z,5.80
2018-05-11T11:08:43.829Z,5.60
2018-05-11T11:11:11.298Z,5.60
2018-05-11T11:13:39.504Z,5.67
2018-05-11T11:16:06.981Z,5.17
2018-05-11T11:18:34.423Z,4.80
2018-05-11T11:21:01.903Z,4.97
2018-05-11T11:23:30.154Z,4.03
2018-05-11T11:25:57.662Z,4.13
2018-05-11T11:28:25.092Z,4.77
2018-05-11T11:30:52.546Z,5.03
2018-05-11T11:33:20.039Z,5.10
2018-05-11T11:35:47.502Z,4.83
2018-05-11T11:38:14.975Z,5.70
2018-05-11T11:40:42.440Z,5.20
2018-05-11T11:43:09.931Z,6.40
2018-05-11T11:45:37.443Z,7.03
2018-05-11T11:48:04.920Z,7.20
2018-05-11T11:50:32.375Z,7.50
2018-05-11T11:52:59.861Z,7.37
2018-05-11T11:55:27.338Z,7.40
2018-05-11T11:57:55.579Z,7.03
2018-05-11T12:00:23.091Z,7.60
2018-05-11T12:02:50.538Z,7.37
2018-05-11T12:05:18.051Z,7.10
2018-05-11T12:07:45.542Z,7.50
2018-05-11T12:10:12.988Z,7.80
2018-05-11T12:12:40.489Z,6.43
2018-05-11T12:15:07.935Z,6.77
2018-05-11T12:17:35.378Z,5.90
2018-05-11T12:20:03.608Z,7.00
2018-05-11T12:22:31.076Z,6.60
2018-05-11T12:24:58.574Z,6.73
2018-05-11T12:27:26.007Z,5.73
2018-05-11T12:29:53.495Z,6.20
2018-05-11T12:32:20.934Z,6.87
2018-05-11T12:34:49.867Z,6.20
2018-05-11T12:37:17.247Z,6.63
2018-05-11T12:39:44.718Z,6.33
2018-05-11T12:42:16.228Z,7.50
2018-05-11T12:44:43.688Z,6.93
2018-05-11T12:47:11.181Z,6.57
2018-05-11T12:49:38.673Z,6.33
2018-05-11T12:52:06.182Z,6.63
2018-05-11T12:54:33.690Z,6.60
2018-05-11T12:57:01.130Z,6.63
2018-05-11T12:59:28.613Z,6.30
2018-05-11T13:01:56.075Z,6.07
2018-05-11T13:04:23.540Z,6.60
2018-05-11T13:06:51.987Z,7.17
2018-05-11T13:09:19.464Z,7.53
2018-05-11T13:11:46.993Z,5.53
2018-05-11T13:14:15.189Z,7.20
2018-05-11T13:16:43.436Z,6.80
2018-05-11T13:19:11.658Z,6.00
2018-05-11T13:21:39.115Z,7.43
2018-05-11T13:24:08.627Z,7.87
2018-05-11T13:26:36.073Z,8.20
2018-05-11T13:29:03.561Z,9.00
2018-05-11T13:31:31.042Z,9.10
2018-05-11T13:33:58.508Z,8.80
2018-05-11T13:36:26.050Z,8.80
2018-05-11T13:38:53.424Z,7.90
2018-05-11T13:41:20.857Z,7.90
2018-05-11T13:43:48.340Z,7.63
2018-05-11T13:46:15.782Z,7.23
2018-05-11T13:48:43.246Z,7.13
2018-05-11T13:51:10.690Z,7.33
2018-05-11T13:53:38.158Z,6.53
2018-05-11T13:56:06.407Z,7.00
2018-05-11T13:58:34.598Z,7.17
2018-05-11T14:01:02.168Z,7.63
2018-05-11T14:03:29.672Z,7.80
2018-05-11T14:05:57.107Z,7.20
2018-05-11T14:08:24.590Z,7.70
2018-05-11T14:10:52.083Z,6.20
2018-05-11T14:13:19.564Z,7.53
2018-05-11T14:15:48.481Z,8.50
2018-05-11T14:18:16.292Z,7.43
2018-05-11T14:20:45.724Z,7.73
2018-05-11T14:23:14.350Z,7.47
2018-05-11T14:25:41.818Z,7.90
2018-05-11T14:28:10.512Z,7.37
2018-05-11T14:30:41.991Z,7.93
2018-05-11T14:33:09.470Z,8.27
2018-05-11T14:35:36.965Z,10.30
2018-05-11T14:38:04.456Z,8.17
2018-05-11T14:53:27.512Z,8.50
2018-05-11T14:55:55.020Z,7.80
2018-05-11T14:58:23.006Z,7.20
2018-05-11T15:00:51.184Z,6.40
2018-05-11T15:03:18.976Z,5.73
2018-05-11T15:05:47.513Z,6.93
2018-05-11T15:08:16.426Z,7.27
2018-05-11T15:10:48.333Z,6.40
2018-05-11T15:13:17.717Z,6.93
2018-05-11T15:15:45.175Z,7.17
2018-05-11T15:18:13.141Z,6.80
2018-05-11T15:20:41.340Z,6.90
2018-05-11T15:23:09.097Z,5.73
2018-05-11T15:25:41.354Z,6.43
2018-05-11T15:37:49.266Z,7.17
2018-05-11T15:49:57.277Z,7.10
2018-05-11T16:05:19.799Z,7.43
2018-05-11T16:07:48.142Z,7.50
2018-05-11T16:19:56.084Z,7.53
2018-05-11T16:22:25.662Z,8.23
2018-05-11T16:24:53.150Z,8.30
2018-05-11T16:27:20.640Z,8.10
2018-05-11T16:29:49.173Z,7.23
2018-05-11T16:32:16.869Z,8.80
2018-05-11T16:34:44.557Z,7.57
2018-05-11T16:37:12.095Z,6.93
2018-05-11T16:52:39.755Z,7.43
2018-05-11T16:55:07.223Z,7.30
2018-05-11T16:57:34.783Z,6.10
2018-05-11T17:00:02.295Z,6.23
2018-05-11T17:02:30.051Z,5.50
2018-05-11T17:14:37.806Z,6.57
2018-05-11T17:17:05.255Z,6.60
2018-05-11T17:19:32.781Z,6.13
2018-05-11T17:22:01.032Z,6.30
2018-05-11T17:24:28.573Z,6.73
2018-05-11T17:26:56.636Z,7.27
2018-05-11T17:29:24.149Z,7.17
2018-05-11T17:31:51.631Z,7.47
2018-05-11T17:34:19.874Z,8.20
2018-05-11T17:36:47.995Z,7.00
2018-05-11T17:39:15.485Z,6.63
2018-05-11T17:41:43.790Z,6.43
2018-05-11T17:44:11.512Z,7.13
2018-05-11T17:46:39.554Z,6.90
2018-05-11T17:49:08.333Z,6.20
2018-05-11T17:51:43.643Z,6.50
2018-05-11T17:54:11.097Z,7.60
2018-05-11T17:56:39.334Z,6.40
2018-05-11T17:59:06.788Z,7.20
2018-05-11T18:01:34.548Z,6.13
2018-05-11T18:04:02.770Z,6.57
2018-05-11T18:16:15.146Z,7.10
2018-05-11T18:28:23.494Z,7.20
2018-05-11T18:43:46.895Z,7.40
2018-05-11T18:46:15.158Z,6.27
2018-05-11T18:48:42.658Z,7.30
2018-05-11T19:00:54.277Z,6.20
2018-05-11T19:03:23.053Z,5.57
2018-05-11T19:05:50.560Z,6.60
2018-05-11T19:08:18.097Z,5.40
2018-05-11T19:10:46.259Z,5.97
2018-05-11T19:13:18.467Z,5.60
2018-05-11T19:15:51.098Z,5.63
2018-05-11T19:18:18.570Z,6.87
2018-05-11T19:20:46.007Z,6.43
2018-05-11T19:23:14.362Z,5.73
2018-05-11T19:38:37.122Z,6.27
2018-05-11T19:50:45.462Z,6.43
2018-05-11T19:53:14.603Z,7.90
2018-05-11T19:55:42.117Z,7.43
2018-05-11T19:58:13.952Z,8.43
2018-05-11T20:00:41.422Z,7.73
2018-05-11T20:03:09.324Z,8.10
2018-05-11T20:15:16.831Z,7.50
2018-05-11T20:17:44.378Z,7.57
2018-05-11T20:33:06.887Z,8.03
2018-05-11T20:35:38.324Z,7.50
2018-05-11T20:38:06.158Z,7.60
2018-05-11T20:40:34.349Z,8.43
2018-05-11T20:43:01.887Z,7.33
2018-05-11T20:45:30.132Z,8.60
2018-05-11T20:47:57.623Z,9.03
2018-05-11T20:50:25.121Z,9.10
2018-05-11T20:52:56.739Z,9.50
2018-05-11T20:55:24.238Z,7.70
2018-05-11T20:57:51.702Z,7.30
2018-05-11T21:00:19.202Z,7.67
2018-05-11T21:02:46.727Z,7.70
2018-05-11T21:05:14.167Z,7.20
2018-05-11T21:07:41.658Z,7.67
2018-05-11T21:10:09.229Z,7.77
2018-05-11T21:12:36.670Z,7.13
2018-05-11T21:15:04.910Z,7.10
2018-05-11T21:17:32.491Z,8.07
2018-05-11T21:19:59.948Z,8.63
2018-05-11T21:22:27.387Z,7.90
2018-05-11T21:24:55.643Z,8.77
2018-05-11T21:27:23.117Z,8.53
2018-05-11T21:29:50.576Z,7.83
2018-05-11T21:32:18.020Z,8.93
2018-05-11T21:34:46.257Z,9.50
2018-05-11T21:37:13.742Z,9.63
2018-05-11T21:39:41.220Z,10.03
2018-05-11T21:42:08.682Z,10.57
2018-05-11T21:44:36.175Z,9.13
2018-05-11T21:47:03.645Z,9.70
2018-05-11T21:49:31.112Z,9.73
2018-05-11T21:51:58.566Z,9.37
2018-05-11T21:54:26.042Z,9.50
2018-05-11T21:56:53.540Z,10.00
2018-05-11T21:59:20.998Z,10.83
2018-05-11T22:01:48.476Z,10.70
2018-05-11T22:04:15.997Z,11.43
2018-05-11T22:06:43.450Z,10.43
2018-05-11T22:09:10.921Z,10.90
2018-05-11T22:11:38.398Z,11.53
2018-05-11T22:14:05.884Z,10.40
2018-05-11T22:16:33.352Z,11.40
2018-05-11T22:19:00.806Z,12.57
2018-05-11T22:21:28.286Z,12.60
2018-05-11T22:23:55.770Z,11.83
2018-05-11T22:26:23.223Z,11.00
2018-05-11T22:28:54.533Z,11.67
2018-05-11T22:31:22.002Z,11.73
2018-05-11T22:33:49.453Z,11.97
2018-05-11T22:36:16.937Z,11.90
2018-05-11T22:38:44.399Z,11.80
2018-05-11T22:41:11.874Z,11.60
2018-05-11T22:43:39.338Z,10.33
2018-05-11T22:46:06.825Z,11.20
2018-05-11T22:48:34.278Z,11.37
2018-05-11T22:51:01.737Z,11.57
2018-05-11T22:53:34.074Z,11.67
2018-05-11T22:56:01.595Z,13.27
2018-05-11T22:58:29.039Z,13.10
2018-05-11T23:00:56.482Z,12.90
2018-05-11T23:03:23.956Z,13.70
2018-05-11T23:05:51.432Z,13.60
2018-05-11T23:08:22.752Z,14.30
2018-05-11T23:10:50.206Z,13.93
2018-05-11T23:13:17.663Z,13.97
2018-05-11T23:15:45.125Z,13.53
2018-05-11T23:18:12.615Z,14.87
2018-05-11T23:20:40.074Z,14.50
2018-05-11T23:23:07.575Z,14.70
2018-05-11T23:25:35.950Z,13.60
2018-05-11T23:28:03.430Z,14.60
2018-05-11T23:30:32.159Z,13.90
2018-05-11T23:32:59.635Z,14.50
2018-05-11T23:35:27.110Z,14.90
2018-05-11T23:37:54.600Z,12.27
2018-05-11T23:40:22.104Z,12.77
2018-05-11T23:42:49.590Z,13.33
2018-05-11T23:45:17.054Z,11.47
2018-05-11T23:47:44.550Z,13.40
2018-05-11T23:50:12.037Z,12.13
